EKVJ/STA METAR and TAF weather

Enter ICAO airport designator
Station Type Date Time Source
EKVJ METAR 2020/04/06 08:50 UTC NOAA

EKVJ 060850Z 16014KT CAVOK 14/06 Q1018


Station Type Date Time Source
EKVJ Decoded METAR 2020/04/06 08:50 UTC NOAA

Stauning Lufthavn, Denmark (EKVJ) 56-00N 008-21E 5M
Apr 06, 2020 - 04:50 AM EDT / 2020.04.06 0850 UTC
Wind: from the SSE (160 degrees) at 16 MPH (14 KT):0
Visibility: greater than 7 mile(s):0
Temperature: 57 F (14 C)
Dew Point: 42 F (6 C)
Relative Humidity: 58%
Pressure (altimeter): 30.06 in. Hg (1018 hPa)
ob: EKVJ 060850Z 16014KT CAVOK 14/06 Q1018
cycle: 9

Station Type Date Time Source
EKVJ TAF UTC NOAA

Error!

Example: see airport list